Terminal Aerodrome Forecast
Issued by NWS Jackson, KY

Home | Current Version | Previous Version | Text Only | Print | Product List | Glossary Off
Versions: 1 2 3 4 5 6 7 8 9 10 11 12 13 14 15 16 17

000
FTUS43 KJKL 210500
TAFJKL
TAF
KJKL 210540Z 2106/2206 27003KT P6SM VCSH SCT035 BKN080
     FM210800 24003KT P6SM FEW035 SCT060
     FM211200 27003KT 6SM BR BKN025
     FM211800 30003KT P6SM BKN040=

USA.gov is the U.S. government's official web portal to all federal, state and local government web resources and services.